Main page
METAR-TAF:

METAR-TAF

Airports :

Resia Pass, Italy

latitude: 46-50N, longitude: 010-30E, elevation: 1800 m

Current weather observation

The report was made 51 minutes ago, at 00:55 UTC
Wind 5 kt from the South
Temperature 8°C
Humidity 93%
Pressure 1024 hPa
Visibility: 7000 m
Scattered clouds at a height of 1000 ft
Scattered clouds at a height of 3000 ft

METAR: LIVE 260055Z 18005KT 7000 SCT010 SCT030 08/07 Q1024 RMK BKN VIS MIN 7000

Time: 03:46 (01:46 UTC)


TAF: missing

Weather observations and forecasts of more than 4000 airports (METAR and TAF reports).

The available stations are represented by yellow and red dots on the map.

Hover mouse over dot to see the name of the station.

Then click to see weather observations and forecasts.

To change the map : click on the green buttons with a black cross to zoom in, on the green button with a dash to zoom out, or on the green arrows for adjacent maps.


METAR-TAF: